Saratoga Springs, New York
Current Conditions -  °F | °C
As of 6:53 PM on Thursday 27 Nov 2014 (Local Time) from KGFL Reporting Station
Light Snow Light Snow  
Wind Chill: 29°   Ceiling: 2000
Heat Index: 29°   Visibility: 5mi
Dew Point: 24°   Wind: 0mph
Humidity: 82%   Direction: NA
Pressure: 30.03"   Gusts: NA
Location:  43.08°N, 73.78°W
Report Text: KGFL 272353Z AUTO 00000KT 5SM -SN OVC020 M02/M04 A3003 RMK AO2 SNB45 SLP177 P0000 60000 T10171044 11006 21017 53005
Loading
Personal Weather Stations






























Interactive Weather Map New forecast layout! Learn more

10-Day Weather Forecast

Advertisements
Track Severe Weather on mobile